Aérodrome :
LOGIN :

S'inscrire | Disclaimer

   EN    FR    IT 

 










Légende :    VFR   VFR Marginal   IFR   IFR Intensif   IFR Très Intensif
Visi : 
Plafond : 
>= 8 km
>= 3000ft
5 à 8 km
1000 à 3000 ft
1500m à 5 km
500 à 1000 ft
800 à 1500m
200 à 500 ft
< 800m
< 200 ft
Symboles :   Orages  Brouillard  Fortes neiges  Fortes précipitations  Vent > 20 kt
SIGMETs :   Divers  Orages  Givrage  Turbulence  Onde Orograph.  Cendres Volcan.






- Altitude de l'aérodrome : 75 ft
- Code IATA : YEO


EGDY - RNAS Yeovilton

DERNIER METAR :
  • 211520Z 09010KT 7000 -RADZ BKN010 08/06 Q0997 NOSIG RMK GRN GRN

METARs EXPIRÉS :
  • 211450Z 09011KT 7000 -RADZ SCT010 BKN014 08/06 Q0997 NOSIG RMK GRN GRN
  • 211420Z 09012KT 5000 -RADZ FEW010 BKN013 08/06 Q0997 NOSIG RMK GRN GRN
  • 211350Z 09013KT 9000 -RA FEW010 BKN014 BKN018 08/06 Q0998 NOSIG RMK GRN GRN
  • 211321Z 09013KT 9999 -RA SCT014 BKN020 08/05 Q0998 NOSIG RMK GRN GRN
  • 211250Z 09011KT 9999 FEW014 BKN020 08/06 Q0998 NOSIG RMK WHT WHT

TAF TAF EGDY
Valide du 21 à 15h jusqu'au 22 à 00h UTC


211332Z 2115/2124 09015KT 9000 HZ FEW012 BKN020
TEMPO 2115/2124 5000 RA BKN012
PROB30
TEMPO 2118/2122 3000 +SHRA SCT007



MET'MAP, la Météo Aéronautique d'un coup d'oeil ! - Copyright ORBIFLY Décembre 2007 - Disclaimer

ORBIFLY MET'MAP TEAM :

Programmation & Développement : Alexandra Zaïnal
Conception & Développement : Baudouin d'Aumeries
Co-Programmation & Développement : Marc-Olivier Méhu
Soutien technique & logistique : Manuel Goepfert

Contact : metmap@orbifly.com




SOURCES & CREDITS :

   NOAA